Maxeyville, Colorado
Current Conditions -  °F | °C
As of 8:52 AM on Friday 28 Nov 2014 (Local Time) from KALS Reporting Station
Clear Clear  
Wind Chill: 25°   Ceiling: Unl
Heat Index: 25°   Visibility: 10mi
Dew Point: 13°   Wind: 3mph
Humidity: 60%   Direction: 330°NNW
Pressure: 30.27"   Gusts: NA
Location:  37.5196°N, 106.176°W
Report Text: KALS 281552Z AUTO 33003KT 10SM CLR M04/M11 A3027 RMK AO2 SLP286 T10391106
Loading
Personal Weather Stations






























Interactive Weather Map New forecast layout! Learn more

10-Day Weather Forecast

Advertisements
Track Severe Weather on mobile